Time;durP1;ratioP1;P1;durP2;ratioP2;P2;SDS_P1;SDS_P2;PMS_P1;PMS_P2;Temp;Humidity;BMP_temperature;BMP_pressure;BME280_temperature;BME280_humidity;BME280_pressure;Samples;Min_cycle;Max_cycle;Signal;HPM_P1;HPM_P2
2023/12/20 00:03:13;;;;;;;15.20;9.20;;;;;;;5.76;91.32;99085.73;220604;1253;140518;-67
2023/12/20 00:08:17;;;;;;;8.90;7.10;;;;;;;5.78;91.35;99083.20;218418;1254;139661;-67
2023/12/20 00:13:22;;;;;;;13.60;9.30;;;;;;;5.76;90.89;99081.02;219969;1253;139451;-67
2023/12/20 00:18:26;;;;;;;12.80;9.30;;;;;;;5.74;91.12;99071.98;219612;1253;140035;-68
2023/12/20 00:23:30;;;;;;;11.60;6.30;;;;;;;5.74;91.01;99069.45;218560;1253;141528;-68
2023/12/20 00:28:33;;;;;;;13.50;9.80;;;;;;;5.72;91.20;99061.77;218157;1253;139836;-67
2023/12/20 00:33:37;;;;;;;12.20;8.70;;;;;;;5.70;91.48;99056.91;218855;1256;140264;-66
2023/12/20 00:38:41;;;;;;;11.30;8.60;;;;;;;5.68;91.10;99053.55;217842;1257;140649;-66
2023/12/20 00:43:45;;;;;;;11.50;8.50;;;;;;;5.65;91.78;99045.94;218831;1253;139727;-67
2023/12/20 00:48:50;;;;;;;14.90;9.20;;;;;;;5.61;91.69;99048.89;218441;1253;140093;-65
2023/12/20 00:53:54;;;;;;;8.10;7.00;;;;;;;5.60;91.72;99049.80;218503;1253;140612;-66
2023/12/20 00:58:59;;;;;;;12.50;8.30;;;;;;;5.61;91.79;99043.54;219339;1253;139487;-66
2023/12/20 01:04:04;;;;;;;14.60;8.00;;;;;;;5.61;92.12;99048.54;217955;1253;139470;-65
2023/12/20 01:09:09;;;;;;;10.70;9.10;;;;;;;5.62;92.54;99049.54;219232;1253;139533;-67
2023/12/20 01:14:13;;;;;;;13.80;8.20;;;;;;;5.61;92.10;99046.21;218472;1253;139498;-65
2023/12/20 01:19:17;;;;;;;9.70;6.90;;;;;;;5.62;92.63;99032.46;217999;1254;141377;-66
2023/12/20 01:24:25;;;;;;;10.30;6.80;;;;;;;5.61;92.57;99031.48;217841;1254;140380;-66
2023/12/20 01:29:34;;;;;;;9.60;7.50;;;;;;;5.59;92.55;99037.00;218542;1257;140429;-66
2023/12/20 01:34:38;;;;;;;10.40;8.40;;;;;;;5.60;92.91;99028.45;218235;1253;139366;-67
2023/12/20 01:39:43;;;;;;;9.70;8.50;;;;;;;5.62;93.11;99020.74;218849;1257;139160;-68
2023/12/20 01:44:47;;;;;;;8.10;7.30;;;;;;;5.63;93.27;99005.48;218239;1253;140366;-67
2023/12/20 01:49:51;;;;;;;10.90;7.30;;;;;;;5.61;93.36;99008.54;219953;1253;139959;-67
2023/12/20 01:55:00;;;;;;;18.10;12.80;;;;;;;5.60;93.16;99007.09;218589;1254;139427;-68
2023/12/20 02:00:06;;;;;;;13.10;11.80;;;;;;;5.61;92.90;98995.65;219567;1254;140335;-68
2023/12/20 02:05:12;;;;;;;9.50;6.80;;;;;;;5.61;93.32;98996.55;219236;1254;139976;-68
2023/12/20 02:10:18;;;;;;;8.30;6.80;;;;;;;5.60;93.39;98982.70;218976;1253;139640;-68
2023/12/20 02:15:23;;;;;;;9.90;7.40;;;;;;;5.62;93.53;98978.52;219731;1254;139929;-68
2023/12/20 02:20:27;;;;;;;8.20;7.30;;;;;;;5.64;93.41;98973.58;219556;1253;139278;-68
2023/12/20 02:25:31;;;;;;;12.50;9.40;;;;;;;5.66;93.25;98971.20;220067;1254;139474;-68
2023/12/20 02:30:36;;;;;;;6.70;5.40;;;;;;;5.70;93.53;98967.73;218150;1257;140716;-68
2023/12/20 02:35:40;;;;;;;10.10;8.80;;;;;;;5.70;93.34;98969.73;218755;1254;139298;-69
2023/12/20 02:40:45;;;;;;;8.10;7.30;;;;;;;5.68;93.40;98963.97;218903;1253;139626;-69
2023/12/20 02:45:53;;;;;;;9.10;7.90;;;;;;;5.65;93.37;98957.95;219186;1253;138924;-67
2023/12/20 02:50:59;;;;;;;7.20;6.20;;;;;;;5.62;93.33;98953.63;218684;1256;139449;-69
2023/12/20 02:56:04;;;;;;;7.50;6.70;;;;;;;5.61;93.55;98953.71;218888;1257;139222;-68
2023/12/20 03:01:10;;;;;;;7.40;5.70;;;;;;;5.61;93.71;98953.15;219123;1256;139840;-70
2023/12/20 03:06:21;;;;;;;7.80;6.90;;;;;;;5.61;93.59;98949.05;219017;1254;139248;-71
2023/12/20 03:11:29;;;;;;;8.60;7.60;;;;;;;5.60;93.88;98945.39;218822;1254;139414;-68
2023/12/20 03:16:33;;;;;;;8.60;7.30;;;;;;;5.60;93.94;98944.58;218272;1253;139489;-69
2023/12/20 03:21:39;;;;;;;5.60;5.10;;;;;;;5.57;94.05;98938.42;218600;1257;139181;-72
2023/12/20 03:26:43;;;;;;;8.30;6.70;;;;;;;5.56;93.97;98932.95;218912;1254;139340;-70
2023/12/20 03:31:48;;;;;;;5.60;4.30;;;;;;;5.55;93.94;98926.20;218676;1253;139628;-69
2023/12/20 03:36:53;;;;;;;5.10;4.50;;;;;;;5.55;93.95;98926.78;219314;1253;139955;-70
2023/12/20 03:41:57;;;;;;;3.60;3.30;;;;;;;5.55;94.29;98933.61;218168;1253;1191960;-69
2023/12/20 03:47:02;;;;;;;5.20;4.50;;;;;;;5.54;94.02;98934.15;218915;1256;141138;-70
2023/12/20 03:52:07;;;;;;;4.70;4.30;;;;;;;5.49;94.08;98941.38;218443;1254;140215;-69
2023/12/20 03:57:12;;;;;;;5.40;4.90;;;;;;;5.45;94.04;98943.16;219330;1252;140097;-70
2023/12/20 04:02:17;;;;;;;3.80;3.40;;;;;;;5.44;94.17;98942.18;220155;1254;141459;-70
2023/12/20 04:07:22;;;;;;;4.60;4.30;;;;;;;5.40;93.84;98941.12;220506;1253;139699;-70
2023/12/20 04:12:30;;;;;;;4.50;3.70;;;;;;;5.40;94.04;98942.82;220748;1253;139354;-69
2023/12/20 04:17:36;;;;;;;4.80;4.20;;;;;;;5.42;93.95;98945.09;219189;1254;141400;-69
2023/12/20 04:22:42;;;;;;;4.90;4.50;;;;;;;5.47;94.01;98941.79;218572;1254;139058;-69
2023/12/20 04:27:47;;;;;;;3.90;3.60;;;;;;;5.47;93.87;98928.69;219219;1254;140288;-70
2023/12/20 04:32:52;;;;;;;5.00;3.10;;;;;;;5.44;94.09;98929.86;219588;1254;139408;-71
2023/12/20 04:37:56;;;;;;;4.00;3.60;;;;;;;5.40;93.72;98929.61;218374;1254;139306;-70
2023/12/20 04:43:01;;;;;;;4.20;3.80;;;;;;;5.36;94.08;98928.15;218574;1256;139451;-70
2023/12/20 04:48:06;;;;;;;5.50;4.60;;;;;;;5.31;94.15;98926.73;218633;1253;140395;-70
2023/12/20 04:53:11;;;;;;;4.90;4.40;;;;;;;5.29;94.28;98922.34;218670;1257;140075;-69
2023/12/20 04:58:16;;;;;;;4.80;4.30;;;;;;;5.27;94.35;98918.70;218329;1257;140142;-69
2023/12/20 05:03:21;;;;;;;6.30;5.50;;;;;;;5.26;94.15;98921.46;218377;1253;140175;-69
2023/12/20 05:08:26;;;;;;;36.90;7.90;;;;;;;5.25;94.42;98917.73;218424;1252;139054;-69
2023/12/20 05:13:31;;;;;;;7.20;5.00;;;;;;;5.23;94.82;98916.73;218873;1253;140301;-69
2023/12/20 05:18:50;;;;;;;5.50;5.00;;;;;;;5.24;94.49;98916.73;218290;1253;140485;-69
2023/12/20 05:23:56;;;;;;;5.90;4.90;;;;;;;5.24;94.64;98918.84;218881;1253;139423;-69
2023/12/20 05:29:00;;;;;;;6.20;5.30;;;;;;;5.24;94.57;98919.01;219538;1252;206893;-69
2023/12/20 05:34:05;;;;;;;6.90;4.40;;;;;;;5.21;94.67;98917.09;218915;1253;139396;-68
2023/12/20 05:39:09;;;;;;;9.40;5.40;;;;;;;5.20;94.71;98924.20;219069;1253;140754;-69
2023/12/20 05:44:14;;;;;;;5.60;5.20;;;;;;;5.16;94.51;98928.58;219377;1254;139431;-69
2023/12/20 05:49:19;;;;;;;5.50;5.00;;;;;;;5.16;94.53;98925.34;218487;1253;139507;-71
2023/12/20 05:54:23;;;;;;;4.70;4.40;;;;;;;5.13;94.35;98920.36;218930;1253;140331;-69
2023/12/20 05:59:28;;;;;;;4.20;3.80;;;;;;;5.11;94.50;98915.63;221031;1254;140392;-72
2023/12/20 06:04:32;;;;;;;5.60;5.00;;;;;;;5.09;94.57;98911.58;220775;1253;139733;-71
2023/12/20 06:09:37;;;;;;;4.30;3.20;;;;;;;5.12;94.47;98916.09;220402;1253;139685;-72
2023/12/20 06:14:41;;;;;;;4.70;4.00;;;;;;;5.16;94.63;98913.30;220812;1254;140635;-72
2023/12/20 06:19:48;;;;;;;3.90;3.60;;;;;;;5.19;94.59;98913.52;218444;1257;139396;-71
2023/12/20 06:24:51;;;;;;;9.10;8.30;;;;;;;5.20;94.31;98908.30;218231;1257;139513;-72
2023/12/20 06:29:56;;;;;;;7.00;6.30;;;;;;;5.17;94.10;98908.38;218133;1254;139635;-71
2023/12/20 06:35:00;;;;;;;6.00;5.40;;;;;;;5.13;94.61;98908.61;218929;1253;141066;-71
2023/12/20 06:40:06;;;;;;;4.90;4.50;;;;;;;5.10;94.57;98907.46;218016;1253;140664;-71
2023/12/20 06:45:19;;;;;;;5.10;4.60;;;;;;;5.06;94.88;98905.83;218192;1253;139505;-71
2023/12/20 06:50:23;;;;;;;6.40;4.90;;;;;;;5.08;94.82;98909.84;217973;1255;139486;-71
2023/12/20 06:55:27;;;;;;;5.60;5.10;;;;;;;5.06;94.82;98910.70;218957;1253;139486;-70
2023/12/20 07:00:33;;;;;;;5.70;5.20;;;;;;;5.05;94.63;98914.51;218246;1253;139756;-69
2023/12/20 07:05:38;;;;;;;5.90;4.80;;;;;;;5.03;94.88;98916.79;219407;1254;161650;-69
2023/12/20 07:10:42;;;;;;;5.30;4.80;;;;;;;5.00;94.99;98917.64;219008;1254;139928;-70
2023/12/20 07:15:46;;;;;;;5.50;5.00;;;;;;;5.00;94.88;98916.26;218697;1257;141709;-68
2023/12/20 07:20:50;;;;;;;6.70;5.10;;;;;;;5.01;94.88;98917.30;219801;1254;140557;-69
2023/12/20 07:25:54;;;;;;;5.40;4.80;;;;;;;5.04;95.16;98923.41;218413;1254;142209;-69
2023/12/20 07:30:58;;;;;;;5.40;4.90;;;;;;;5.04;95.06;98928.33;218958;1257;139456;-68
2023/12/20 07:36:04;;;;;;;5.80;4.90;;;;;;;5.04;95.02;98930.60;219103;1254;139867;-68
2023/12/20 07:41:10;;;;;;;6.80;6.10;;;;;;;5.04;94.99;98927.96;218987;1253;141200;-69
2023/12/20 07:46:15;;;;;;;7.70;6.80;;;;;;;5.04;95.30;98926.01;220489;1256;139856;-69
2023/12/20 07:51:21;;;;;;;4.90;4.50;;;;;;;5.08;95.45;98927.14;221041;1253;139535;-69
2023/12/20 07:56:24;;;;;;;5.00;4.50;;;;;;;5.10;95.16;98927.50;220954;1253;139434;-70
2023/12/20 08:01:28;;;;;;;5.80;5.20;;;;;;;5.10;95.14;98926.65;221058;1252;139624;-70
2023/12/20 08:06:32;;;;;;;5.90;4.80;;;;;;;5.13;95.31;98927.31;220454;1253;139591;-70
2023/12/20 08:11:36;;;;;;;4.90;4.40;;;;;;;5.17;95.13;98916.63;220262;1253;140115;-69
2023/12/20 08:16:41;;;;;;;5.50;5.00;;;;;;;5.20;95.38;98916.95;219045;1253;140512;-69
2023/12/20 08:21:46;;;;;;;4.20;3.80;;;;;;;5.23;95.42;98916.50;219940;1254;141298;-69
2023/12/20 08:26:50;;;;;;;5.70;4.20;;;;;;;5.25;95.53;98922.85;218681;1256;139106;-69
2023/12/20 08:31:55;;;;;;;5.50;5.10;;;;;;;5.25;95.55;98917.98;220368;1255;140589;-69
2023/12/20 08:37:00;;;;;;;4.80;4.40;;;;;;;5.26;95.44;98919.60;219071;1255;139226;-69
2023/12/20 08:42:04;;;;;;;4.20;3.90;;;;;;;5.27;95.60;98914.14;219687;1254;139600;-69
2023/12/20 08:47:12;;;;;;;5.10;4.20;;;;;;;5.29;95.52;98911.60;218719;1253;140867;-71
2023/12/20 08:52:17;;;;;;;5.40;5.00;;;;;;;5.30;95.49;98913.05;218640;1257;139746;-70
2023/12/20 08:57:23;;;;;;;5.70;5.20;;;;;;;5.28;95.53;98913.23;218283;1254;139159;-71
2023/12/20 09:02:28;;;;;;;5.00;4.50;;;;;;;5.30;95.63;98911.66;218358;1257;139407;-69
2023/12/20 09:07:33;;;;;;;5.50;4.90;;;;;;;5.31;95.67;98911.83;218461;1254;140627;-69
2023/12/20 09:12:42;;;;;;;4.50;4.10;;;;;;;5.31;95.41;98916.48;218659;1253;139604;-69
2023/12/20 09:17:46;;;;;;;5.00;4.50;;;;;;;5.31;95.98;98918.45;219124;1254;139646;-69
2023/12/20 09:22:52;;;;;;;7.00;5.50;;;;;;;5.31;95.54;98910.03;218699;1255;139482;-69
2023/12/20 09:27:56;;;;;;;5.90;5.30;;;;;;;5.29;95.92;98913.63;220047;1256;139751;-69
2023/12/20 09:33:01;;;;;;;5.10;4.40;;;;;;;5.29;95.64;98914.64;219108;1254;139681;-70
2023/12/20 09:38:07;;;;;;;6.00;5.20;;;;;;;5.30;95.92;98917.61;220154;1255;140452;-69
2023/12/20 09:43:15;;;;;;;5.00;4.50;;;;;;;5.29;95.77;98911.64;219180;1254;140631;-68
2023/12/20 09:48:21;;;;;;;6.40;5.80;;;;;;;5.29;95.63;98901.30;219047;1256;139654;-69
2023/12/20 09:53:29;;;;;;;4.00;3.70;;;;;;;5.31;95.64;98895.08;221043;1256;139875;-69
2023/12/20 09:58:38;;;;;;;4.50;4.10;;;;;;;5.32;95.50;98883.22;220786;1253;140092;-69
2023/12/20 10:03:43;;;;;;;5.90;4.60;;;;;;;5.34;95.52;98877.27;221277;1256;139501;-69
2023/12/20 10:08:46;;;;;;;7.90;4.20;;;;;;;5.38;95.79;98881.09;220977;1254;140228;-69
2023/12/20 10:13:50;;;;;;;4.00;3.60;;;;;;;5.41;95.47;98883.33;218042;1259;139012;-69
2023/12/20 10:18:57;;;;;;;4.20;3.80;;;;;;;5.39;95.57;98877.55;219167;1256;139296;-69
2023/12/20 10:24:02;;;;;;;6.10;4.20;;;;;;;5.39;95.46;98878.77;218353;1255;139435;-69
2023/12/20 10:29:06;;;;;;;4.70;4.30;;;;;;;5.38;95.53;98868.98;219889;1256;139799;-69
2023/12/20 10:34:11;;;;;;;3.90;3.40;;;;;;;5.41;95.75;98858.33;219957;1256;141481;-69
2023/12/20 10:39:15;;;;;;;5.30;4.80;;;;;;;5.47;95.31;98861.75;219100;1256;140282;-69
2023/12/20 10:44:20;;;;;;;4.00;3.70;;;;;;;5.50;95.27;98867.02;219543;1254;139713;-69
2023/12/20 10:49:26;;;;;;;5.80;2.80;;;;;;;5.56;95.51;98862.20;218548;1256;139569;-68
2023/12/20 10:54:32;;;;;;;4.40;3.50;;;;;;;5.56;95.30;98866.81;219000;1257;139566;-69
2023/12/20 10:59:39;;;;;;;4.20;3.80;;;;;;;5.51;95.16;98860.27;218789;1257;139339;-69
2023/12/20 11:05:43;;;;;;;4.10;3.70;;;;;;;5.49;95.08;98852.41;218245;1256;139229;-68
2023/12/20 11:10:51;;;;;;;4.80;4.30;;;;;;;5.54;95.15;98852.41;217489;1260;140263;-68
2023/12/20 11:15:55;;;;;;;5.10;4.60;;;;;;;5.54;95.43;98847.56;218139;1254;139510;-69
2023/12/20 11:21:05;;;;;;;5.70;4.60;;;;;;;5.58;95.42;98834.23;218917;1254;140051;-69
2023/12/20 11:26:10;;;;;;;5.90;4.10;;;;;;;5.62;95.21;98838.36;219611;1254;139553;-69
2023/12/20 11:31:17;;;;;;;5.60;4.60;;;;;;;5.59;94.87;98832.62;219030;1257;140077;-69
2023/12/20 11:36:25;;;;;;;5.20;4.60;;;;;;;5.59;94.94;98835.05;220254;1254;139980;-69
2023/12/20 11:41:32;;;;;;;4.90;4.30;;;;;;;5.59;94.86;98834.16;219800;1254;139986;-70
2023/12/20 11:46:37;;;;;;;6.50;4.90;;;;;;;5.60;94.60;98841.15;220231;1254;139877;-70
2023/12/20 11:51:42;;;;;;;6.70;5.60;;;;;;;5.61;94.75;98836.86;219927;1254;140732;-69
2023/12/20 11:56:47;;;;;;;7.60;6.30;;;;;;;5.58;94.51;98829.85;220819;1254;140005;-70
2023/12/20 12:01:52;;;;;;;5.90;4.80;;;;;;;5.59;94.61;98823.42;220073;1254;139884;-70
2023/12/20 12:06:56;;;;;;;8.60;5.70;;;;;;;5.58;94.04;98817.95;219080;1254;139130;-69
2023/12/20 12:12:02;;;;;;;4.30;3.90;;;;;;;5.53;93.52;98817.65;218444;1256;139677;-69
2023/12/20 12:17:11;;;;;;;5.60;3.90;;;;;;;5.52;93.42;98813.27;219885;1254;139405;-69
2023/12/20 12:22:19;;;;;;;5.10;3.40;;;;;;;5.51;92.82;98805.65;219770;1254;141202;-69
2023/12/20 12:27:27;;;;;;;10.50;4.50;;;;;;;5.44;92.64;98796.72;219908;1253;139206;-69
2023/12/20 12:32:32;;;;;;;3.70;3.40;;;;;;;5.44;92.55;98790.96;219498;1254;139743;-69
2023/12/20 12:37:40;;;;;;;6.30;4.50;;;;;;;5.38;92.39;98786.67;218238;1254;140317;-69
2023/12/20 12:42:45;;;;;;;;;;;;;;;5.31;92.05;98779.70;219719;1254;140390;-69
2023/12/20 12:47:50;;;;;;;4.40;3.60;;;;;;;5.26;92.42;98766.78;219555;1254;126283;-69
2023/12/20 12:52:55;;;;;;;4.70;4.30;;;;;;;5.29;92.36;98759.93;218726;1253;141972;-69
2023/12/20 12:58:01;;;;;;;6.00;4.00;;;;;;;5.28;91.99;98760.66;219173;1254;139265;-68
2023/12/20 13:03:05;;;;;;;3.70;3.20;;;;;;;5.25;92.12;98758.08;219773;1254;140222;-68
2023/12/20 13:08:10;;;;;;;5.90;3.50;;;;;;;5.26;92.11;98761.70;219468;1254;141155;-69
2023/12/20 13:13:15;;;;;;;5.40;3.10;;;;;;;5.23;91.86;98759.56;219088;1253;139342;-68
2023/12/20 13:18:23;;;;;;;3.70;3.20;;;;;;;5.15;91.65;98756.14;218585;1254;139275;-68
2023/12/20 13:23:29;;;;;;;3.50;2.90;;;;;;;5.13;91.85;98754.14;219080;1254;139297;-69
2023/12/20 13:28:34;;;;;;;6.10;3.70;;;;;;;5.08;91.55;98754.96;218477;1254;141406;-68
2023/12/20 13:33:40;;;;;;;7.80;3.60;;;;;;;5.06;91.78;98759.86;219627;1254;139494;-69
2023/12/20 13:38:44;;;;;;;4.20;2.80;;;;;;;5.03;91.80;98759.21;218542;1254;139601;-69
2023/12/20 13:43:49;;;;;;;3.30;2.90;;;;;;;5.01;91.22;98755.29;220743;1254;140003;-69
2023/12/20 13:48:54;;;;;;;7.50;3.60;;;;;;;4.98;91.27;98747.08;220721;1254;139546;-70
2023/12/20 13:53:59;;;;;;;5.30;3.20;;;;;;;5.00;91.56;98743.84;221131;1253;140140;-69
2023/12/20 13:59:03;;;;;;;4.90;3.40;;;;;;;5.02;91.37;98749.35;220086;1253;140356;-69
2023/12/20 14:04:07;;;;;;;7.20;4.00;;;;;;;5.01;91.05;98747.00;219372;1253;140633;-69
2023/12/20 14:09:11;;;;;;;4.50;2.10;;;;;;;5.00;91.29;98746.80;219946;1254;139758;-68
2023/12/20 14:14:15;;;;;;;10.70;3.00;;;;;;;4.98;91.10;98744.84;219878;1252;141354;-69
2023/12/20 14:19:20;;;;;;;2.90;2.60;;;;;;;4.93;90.79;98744.02;219272;1254;139397;-68
2023/12/20 14:24:26;;;;;;;7.40;3.40;;;;;;;4.88;91.12;98750.23;219750;1254;139344;-69
2023/12/20 14:29:30;;;;;;;4.70;2.20;;;;;;;4.84;91.05;98751.21;219969;1253;139330;-69
2023/12/20 14:34:34;;;;;;;5.80;3.20;;;;;;;4.79;90.91;98752.24;219316;1254;140113;-70
2023/12/20 14:39:41;;;;;;;7.70;2.90;;;;;;;4.78;91.30;98749.00;220106;1253;140021;-70
2023/12/20 14:44:44;;;;;;;2.30;2.10;;;;;;;4.78;91.41;98745.62;218596;1253;139135;-68
2023/12/20 14:49:48;;;;;;;4.20;2.50;;;;;;;4.75;90.94;98743.95;217873;1253;139411;-67
2023/12/20 14:54:53;;;;;;;5.80;3.40;;;;;;;4.70;90.86;98752.45;219292;1254;140768;-67
2023/12/20 14:59:59;;;;;;;11.80;7.00;;;;;;;4.65;90.80;98751.58;218045;1254;140430;-66
2023/12/20 15:05:05;;;;;;;7.20;5.10;;;;;;;4.60;91.10;98751.17;218671;1257;140001;-66
2023/12/20 15:10:09;;;;;;;8.70;6.40;;;;;;;4.59;90.98;98740.48;219353;1253;143616;-67
2023/12/20 15:15:14;;;;;;;5.40;4.10;;;;;;;4.58;91.01;98734.59;218817;1254;140335;-66
2023/12/20 15:20:19;;;;;;;6.90;3.20;;;;;;;4.55;91.35;98729.13;219585;1254;141160;-66
2023/12/20 15:25:23;;;;;;;4.20;3.30;;;;;;;4.53;91.00;98721.77;219086;1254;140119;-67
2023/12/20 15:30:29;;;;;;;3.70;2.70;;;;;;;4.50;91.09;98716.15;218841;1254;139647;-67
2023/12/20 15:35:34;;;;;;;5.00;3.10;;;;;;;4.51;91.37;98709.16;218906;1254;139251;-68
2023/12/20 15:40:38;;;;;;;4.90;2.80;;;;;;;4.47;90.90;98703.04;217799;1257;557432;-71
2023/12/20 15:45:43;;;;;;;3.50;2.40;;;;;;;4.41;91.18;98704.22;218597;1254;139735;-68
2023/12/20 15:50:47;;;;;;;7.30;3.10;;;;;;;4.39;90.89;98702.90;219802;1253;140695;-68
2023/12/20 15:55:52;;;;;;;8.30;2.20;;;;;;;4.39;91.52;98705.82;218555;1254;140370;-68
2023/12/20 16:00:56;;;;;;;4.40;3.00;;;;;;;4.39;90.95;98696.28;220054;1254;139547;-67
2023/12/20 16:06:04;;;;;;;;;;;;;;;4.35;90.77;98692.75;219915;1254;210803;-68
2023/12/20 16:11:09;;;;;;;19.90;7.90;;;;;;;4.27;90.89;98689.69;219757;1253;126751;-68
2023/12/20 16:16:21;;;;;;;9.10;3.00;;;;;;;4.26;91.18;98683.86;218487;1253;141029;-67
2023/12/20 16:21:28;;;;;;;6.70;3.50;;;;;;;4.27;91.16;98677.98;219407;1254;139196;-68
2023/12/20 16:26:34;;;;;;;8.00;3.00;;;;;;;4.29;91.33;98672.21;219836;1253;139536;-68
2023/12/20 16:31:44;;;;;;;3.60;3.20;;;;;;;4.28;91.36;98666.45;218504;1253;141617;-68
2023/12/20 16:36:55;;;;;;;3.20;2.90;;;;;;;4.28;91.26;98645.97;218733;1254;139612;-67
2023/12/20 16:42:05;;;;;;;7.00;2.90;;;;;;;4.31;91.34;98635.86;219323;1253;140201;-69
2023/12/20 16:47:14;;;;;;;4.20;3.00;;;;;;;4.31;91.39;98632.48;218492;1253;139446;-67
2023/12/20 16:52:24;;;;;;;5.70;3.00;;;;;;;4.32;91.22;98628.66;219060;1253;139734;-68
2023/12/20 16:57:31;;;;;;;7.50;5.00;;;;;;;4.33;91.25;98625.95;218443;1253;139323;-67
2023/12/20 17:02:39;;;;;;;9.00;3.90;;;;;;;4.34;91.11;98620.56;218454;1253;139551;-68
2023/12/20 17:07:51;;;;;;;5.60;2.60;;;;;;;4.36;91.35;98622.23;218502;1254;139519;-68
2023/12/20 17:12:57;;;;;;;8.70;2.80;;;;;;;4.38;91.17;98620.08;218118;1254;139192;-67
2023/12/20 17:18:05;;;;;;;4.60;3.30;;;;;;;4.37;91.32;98614.31;219000;1253;139375;-66
2023/12/20 17:23:12;;;;;;;2.80;2.50;;;;;;;4.36;91.26;98601.09;218753;1253;139425;-67
2023/12/20 17:28:19;;;;;;;8.30;4.00;;;;;;;4.34;91.32;98591.63;218990;1253;139520;-67
2023/12/20 17:33:24;;;;;;;2.60;2.10;;;;;;;4.34;91.64;98581.02;219288;1254;140428;-67
2023/12/20 17:38:28;;;;;;;3.90;2.60;;;;;;;4.34;91.45;98571.27;218385;1253;139181;-67
2023/12/20 17:43:34;;;;;;;6.60;2.60;;;;;;;4.33;91.37;98571.41;219652;1253;139621;-68
2023/12/20 17:48:39;;;;;;;7.00;2.70;;;;;;;4.33;91.29;98569.72;219163;1256;139032;-67
2023/12/20 17:53:44;;;;;;;5.20;3.60;;;;;;;4.35;90.99;98574.40;220734;1253;140343;-68
2023/12/20 17:58:48;;;;;;;4.70;3.20;;;;;;;4.35;91.25;98565.34;220766;1253;139699;-68
2023/12/20 18:03:52;;;;;;;7.00;3.20;;;;;;;4.38;90.91;98564.14;219243;1253;140365;-68
2023/12/20 18:08:56;;;;;;;8.60;2.90;;;;;;;4.38;91.16;98563.52;220040;1254;139550;-68
2023/12/20 18:14:01;;;;;;;6.80;4.20;;;;;;;4.41;91.12;98558.27;219565;1253;139640;-67
2023/12/20 18:19:05;;;;;;;5.90;2.50;;;;;;;4.42;91.33;98561.65;218617;1254;139318;-67
2023/12/20 18:24:09;;;;;;;4.70;2.20;;;;;;;4.42;90.77;98563.20;219483;1253;139729;-67
2023/12/20 18:29:14;;;;;;;3.10;2.70;;;;;;;4.44;90.75;98573.36;219052;1255;140508;-67
2023/12/20 18:34:20;;;;;;;4.00;2.70;;;;;;;4.43;90.76;98572.72;218249;1253;139403;-67
2023/12/20 18:39:26;;;;;;;5.70;2.70;;;;;;;4.45;90.40;98584.27;218193;1256;139207;-68
2023/12/20 18:44:38;;;;;;;5.50;2.90;;;;;;;4.43;90.11;98583.06;217974;1253;139608;-68
2023/12/20 18:49:49;;;;;;;4.10;1.90;;;;;;;4.39;89.67;98598.58;217890;1253;139671;-68
2023/12/20 18:54:57;;;;;;;3.00;1.30;;;;;;;4.36;89.47;98612.70;218461;1253;139505;-67
2023/12/20 19:00:04;;;;;;;3.30;1.10;;;;;;;4.34;89.31;98631.11;217889;1254;138957;-67
2023/12/20 19:05:14;;;;;;;1.80;1.70;;;;;;;4.28;88.54;98648.04;217898;1253;139618;-67
2023/12/20 19:10:23;;;;;;;2.20;1.50;;;;;;;4.20;88.25;98652.39;219020;1252;140490;-67
2023/12/20 19:15:29;;;;;;;3.20;1.00;;;;;;;4.14;88.09;98655.49;218472;1254;139526;-65
2023/12/20 19:20:35;;;;;;;1.50;1.10;;;;;;;4.15;87.73;98648.39;219009;1253;139562;-67
2023/12/20 19:25:42;;;;;;;2.90;1.80;;;;;;;4.17;87.68;98648.29;219334;1254;140747;-67
2023/12/20 19:30:49;;;;;;;3.20;0.70;;;;;;;4.17;87.67;98650.88;219178;1256;210698;-69
2023/12/20 19:35:53;;;;;;;1.30;1.00;;;;;;;4.14;87.36;98653.06;218075;1254;139604;-65
2023/12/20 19:40:58;;;;;;;2.80;1.80;;;;;;;4.05;87.36;98655.22;218804;1253;139842;-68
2023/12/20 19:46:03;;;;;;;2.50;1.40;;;;;;;3.93;87.37;98653.81;218243;1254;139334;-67
2023/12/20 19:51:07;;;;;;;3.10;2.40;;;;;;;3.79;87.18;98657.42;220650;1254;141189;-68
2023/12/20 19:56:13;;;;;;;6.20;1.50;;;;;;;3.65;87.48;98658.08;218465;1253;139899;-69
2023/12/20 20:01:18;;;;;;;4.00;2.00;;;;;;;3.55;87.43;98662.92;220813;1253;139587;-70
2023/12/20 20:06:22;;;;;;;2.70;1.80;;;;;;;3.53;87.69;98671.32;220644;1253;140167;-69
2023/12/20 20:11:26;;;;;;;12.60;3.20;;;;;;;3.57;88.12;98678.42;218435;1254;139226;-69
2023/12/20 20:16:38;;;;;;;3.30;1.90;;;;;;;3.61;87.84;98688.41;217775;1254;142280;-69
2023/12/20 20:21:43;;;;;;;2.50;1.90;;;;;;;3.62;88.07;98692.05;218600;1253;140961;-68
2023/12/20 20:26:51;;;;;;;;;;;;;;;3.65;88.01;98687.70;218947;1253;140061;-67
2023/12/20 20:31:56;;;;;;;14.90;3.00;;;;;;;3.65;87.76;98691.34;219317;1253;126133;-66
2023/12/20 20:37:02;;;;;;;4.70;3.00;;;;;;;3.64;87.70;98692.16;219025;1255;139906;-67
2023/12/20 20:42:06;;;;;;;5.00;3.20;;;;;;;3.65;87.79;98695.64;219323;1254;140218;-67
2023/12/20 20:47:11;;;;;;;4.70;3.80;;;;;;;3.68;87.65;98700.70;219307;1254;140160;-67
2023/12/20 20:52:16;;;;;;;3.80;2.10;;;;;;;3.72;87.47;98709.14;218644;1254;139538;-66
2023/12/20 20:57:20;;;;;;;6.50;2.60;;;;;;;3.73;87.38;98708.40;218534;1254;141037;-66
2023/12/20 21:02:25;;;;;;;6.80;2.40;;;;;;;3.73;87.27;98705.85;218276;1254;139478;-67
2023/12/20 21:07:33;;;;;;;12.80;3.60;;;;;;;3.70;87.22;98701.98;218191;1254;140164;-67
2023/12/20 21:12:38;;;;;;;7.30;4.50;;;;;;;3.69;86.94;98709.04;219228;1253;141753;-67
2023/12/20 21:17:46;;;;;;;5.50;2.80;;;;;;;3.69;87.23;98704.30;218497;1259;139811;-67
2023/12/20 21:22:58;;;;;;;5.50;3.00;;;;;;;3.69;87.03;98716.70;218882;1256;140249;-67
2023/12/20 21:28:05;;;;;;;7.10;3.30;;;;;;;3.72;87.28;98721.06;218798;1253;139489;-66
2023/12/20 21:33:10;;;;;;;8.80;4.70;;;;;;;3.71;87.29;98714.50;218537;1253;140055;-68
2023/12/20 21:38:15;;;;;;;6.40;3.00;;;;;;;3.69;87.35;98710.01;219223;1253;139516;-68
2023/12/20 21:43:19;;;;;;;10.80;3.10;;;;;;;3.68;87.38;98704.71;218374;1254;139665;-68
2023/12/20 21:48:25;;;;;;;4.70;3.60;;;;;;;3.70;87.26;98709.23;220535;1253;139420;-70
2023/12/20 21:53:30;;;;;;;10.70;3.70;;;;;;;3.66;87.09;98706.77;219897;1253;139851;-69
2023/12/20 21:58:35;;;;;;;5.70;2.60;;;;;;;3.61;86.79;98708.23;219962;1254;139864;-71
2023/12/20 22:03:39;;;;;;;4.50;2.70;;;;;;;3.58;86.97;98709.77;219862;1254;141897;-69
2023/12/20 22:08:45;;;;;;;9.30;3.50;;;;;;;3.58;86.55;98703.07;220397;1252;139084;-70
2023/12/20 22:13:50;;;;;;;7.00;2.50;;;;;;;3.61;87.18;98699.39;219042;1253;208288;-70
2023/12/20 22:19:00;;;;;;;9.00;2.80;;;;;;;3.62;86.64;98695.79;218346;1254;139178;-68
2023/12/20 22:24:06;;;;;;;5.10;2.70;;;;;;;3.60;86.91;98703.83;219518;1257;140175;-68
2023/12/20 22:29:10;;;;;;;4.80;2.30;;;;;;;3.60;86.60;98715.27;218909;1256;139540;-68
2023/12/20 22:34:16;;;;;;;6.30;3.40;;;;;;;3.60;86.50;98709.66;218840;1253;140813;-67
2023/12/20 22:39:22;;;;;;;9.20;2.80;;;;;;;3.63;86.82;98700.08;219225;1255;140414;-69
2023/12/20 22:44:27;;;;;;;10.50;5.50;;;;;;;3.59;86.47;98698.60;218632;1253;140061;-69
2023/12/20 22:49:31;;;;;;;4.20;2.70;;;;;;;3.60;86.62;98701.31;219056;1254;141157;-67
2023/12/20 22:54:36;;;;;;;7.70;2.80;;;;;;;3.61;86.57;98690.88;218559;1253;139793;-67
2023/12/20 22:59:44;;;;;;;8.60;2.70;;;;;;;3.61;86.65;98684.73;218717;1254;139317;-68
2023/12/20 23:04:48;;;;;;;6.40;2.90;;;;;;;3.58;86.09;98669.98;218191;1254;140368;-70
2023/12/20 23:09:52;;;;;;;7.40;2.90;;;;;;;3.52;86.07;98661.08;218785;1254;139462;-69
2023/12/20 23:14:57;;;;;;;5.80;3.10;;;;;;;3.44;86.14;98654.29;218450;1255;139453;-67
2023/12/20 23:20:04;;;;;;;7.90;3.90;;;;;;;3.37;86.49;98649.42;219283;1254;139980;-68
2023/12/20 23:25:09;;;;;;;6.40;3.40;;;;;;;3.37;86.06;98644.20;220000;1254;140343;-69
2023/12/20 23:30:14;;;;;;;4.10;3.10;;;;;;;3.36;86.34;98636.60;218113;1253;139402;-68
2023/12/20 23:35:21;;;;;;;6.40;2.40;;;;;;;3.35;86.45;98625.02;219088;1254;139152;-68
2023/12/20 23:40:26;;;;;;;3.60;3.00;;;;;;;3.32;86.47;98634.83;218186;1255;140374;-68